Flight Track Log - Related Links

Times and Time Zones

All times are in EDT time to prevent confusion due to time zone crossing. See the BECT169 flight status page for this flight to view local times or setup timezone preferences in your user account.

Time Position Orientation Groundspeed Altitude Reporting Facility
EDT Latitude Longitude Course Direction KTS MPH feet Rate Location/Type
Mon 04:09:26 PM 37.6808 -97.2181 128° Southeast 153 176 1,900  Level Kansas City Center
Mon 04:10:26 PM 37.6508 -97.1697 128° Southeast 205 236 3,100 1,327 Climbing Kansas City Center
Mon 04:11:10 PM 37.6642 -97.1244 70° East 216 249 4,200 1,868 Climbing Kansas City Center
Mon 04:12:12 PM 37.7003 -97.0650 52° Northeast 214 246 6,400 2,226 Climbing Kansas City Center
Mon 04:13:14 PM 37.7444 -96.9972 50° Northeast 209 241 8,800 2,129 Climbing Kansas City Center
Mon 04:14:16 PM 37.7831 -96.9356 52° Northeast 222 255 10,800 1,935 Climbing Kansas City Center
Mon 04:15:18 PM 37.8247 -96.8722 50° Northeast 233 268 12,800 1,935 Climbing Kansas City Center
Mon 04:16:20 PM 37.8653 -96.8089 51° Northeast 233 268 14,800 1,935 Climbing Kansas City Center
Mon 04:17:22 PM 37.9050 -96.7475 51° Northeast 228 262 16,800 1,887 Climbing Kansas City Center
Mon 04:18:24 PM 37.9433 -96.6875 51° Northeast 221 254 18,700 2,064 Climbing Kansas City Center
Mon 04:19:27 PM 37.9883 -96.6172 51° Northeast 214 246 21,100 1,968 Climbing Kansas City Center
Mon 04:20:29 PM 38.0231 -96.5617 52° Northeast 204 235 22,800 1,452 Climbing Kansas City Center
Mon 04:21:31 PM 38.0581 -96.5064 51° Northeast 200 230 24,100 1,258 Climbing Kansas City Center
Mon 04:22:33 PM 38.0947 -96.4486 51° Northeast 208 239 25,400 1,258 Climbing Kansas City Center
Mon 04:23:35 PM 38.1322 -96.3897 51° Northeast 213 245 26,700 1,258 Climbing Kansas City Center
Mon 04:24:37 PM 38.1700 -96.3333 50° Northeast 210 242 28,000 1,113 Climbing Kansas City Center
Mon 04:25:39 PM 38.2114 -96.2683 51° Northeast 210 242 29,000 484 Climbing Kansas City Center
Mon 04:26:41 PM 38.2606 -96.1911 51° Northeast 252 290 29,000  Level Kansas City Center
Mon 04:27:43 PM 38.2922 -96.1081 64° Northeast 281 323 29,000  Level Kansas City Center
Mon 04:28:45 PM 38.2467 -96.0258 125° Southeast 269 310 29,000  Level Kansas City Center
Mon 04:29:47 PM 38.1781 -95.9992 163° South 269 310 29,000  Level Kansas City Center
Mon 04:30:49 PM 38.1083 -95.9725 163° South 271 312 29,000  Level Kansas City Center
Mon 04:31:51 PM 38.0264 -95.9414 163° South 276 318 29,000  Level Kansas City Center
Mon 04:32:53 PM 37.9564 -95.9142 163° South 276 318 29,000  Level Kansas City Center
Mon 04:33:55 PM 37.8811 -95.8850 163° South 275 316 29,000  Level Kansas City Center
Mon 04:34:57 PM 37.8075 -95.8581 164° South 274 315 29,000  Level Kansas City Center
Mon 04:35:59 PM 37.7197 -95.8244 163° South 274 315 29,000  Level Kansas City Center
Mon 04:37:01 PM 37.6481 -95.7944 162° South 272 313 29,000  Level Kansas City Center
Mon 04:38:03 PM 37.5750 -95.7664 163° South 272 313 29,000  Level Kansas City Center
Mon 04:39:05 PM 37.5411 -95.8353 238° Southwest 272 313 29,000  Level Kansas City Center
Mon 04:40:07 PM 37.5450 -95.9231 273° West 259 298 29,000  Level Kansas City Center
Mon 04:41:09 PM 37.5492 -96.0136 273° West 259 298 29,000  Level Kansas City Center
Mon 04:42:11 PM 37.5553 -96.1206 274° West 256 295 29,000  Level Kansas City Center
Mon 04:43:14 PM 37.5608 -96.2036 275° West 244 281 29,000  Level Kansas City Center
Mon 04:44:16 PM 37.5656 -96.2881 274° West 242 278 29,000  Level Kansas City Center
Mon 04:45:18 PM 37.5703 -96.3775 274° West 252 290 29,000  Level Kansas City Center
Mon 04:46:20 PM 37.5761 -96.4769 274° West 261 300 29,000  Level Kansas City Center
Mon 04:47:22 PM 37.5822 -96.5681 275° West 262 302 29,000  Level Kansas City Center
Mon 04:48:24 PM 37.5892 -96.6606 275° West 264 304 29,000  Level Kansas City Center
Mon 04:49:26 PM 37.5953 -96.7522 275° West 263 303 29,000  Level Kansas City Center
Mon 04:50:28 PM 37.6033 -96.8422 276° West 261 300 29,000  Level Kansas City Center
Mon 04:51:30 PM 37.6100 -96.9342 275° West 263 303 29,000  Level Kansas City Center
Mon 04:52:32 PM 37.6786 -96.9142 13° North 278 320 29,000  Level Kansas City Center
Mon 04:53:34 PM 37.6719 -96.8169 95° East 287 330 29,000  Level Kansas City Center
Mon 04:54:36 PM 37.6644 -96.7161 95° East 287 330 29,000 -484 Level Kansas City Center
Mon 04:55:38 PM 37.6567 -96.6125 95° East 294 338 28,000 -1,258 Descending Kansas City Center
Mon 04:56:40 PM 37.6500 -96.4978 94° East 319 367 26,400 -1,790 Descending Kansas City Center
Mon 04:57:42 PM 37.6364 -96.3658 97° East 331 381 24,300 -2,032 Descending Kansas City Center
Mon 04:58:44 PM 37.6367 -96.2444 90° East 352 405 22,200 -2,081 Descending Kansas City Center
Mon 04:59:46 PM 37.7236 -96.2272 North 333 383 20,000 -2,081 Descending Kansas City Center
Mon 05:00:48 PM 37.7736 -96.3175 305° West 316 364 17,900 -1,500 Descending Kansas City Center
Mon 05:01:50 PM 37.8033 -96.4167 291° West 304 350 16,900 -1,210 Descending Kansas City Center
Mon 05:02:52 PM 37.8325 -96.5125 291° West 294 338 15,400 -1,548 Descending Kansas City Center
Mon 05:03:54 PM 37.8608 -96.6083 291° West 293 337 13,700 -1,790 Descending Kansas City Center
Mon 05:04:56 PM 37.8958 -96.7244 291° West 294 338 11,700 -1,790 Descending Kansas City Center
Mon 05:05:58 PM 37.9233 -96.8206 290° West 292 336 10,000 -1,694 Descending Kansas City Center
Mon 05:07:00 PM 37.9528 -96.9186 291° West 296 341 8,200 -1,694 Descending Kansas City Center
Mon 05:08:02 PM 37.9839 -97.0156 292° West 299 344 6,500 -1,355 Descending Kansas City Center
Mon 05:09:04 PM 38.0442 -97.0856 318° Northwest 297 342 5,400 -532 Descending Kansas City Center
Mon 05:10:06 PM 38.1108 -97.1269 334° Northwest 268 308 5,400 -677 Level Kansas City Center
Mon 05:11:08 PM 38.1922 -97.1808 333° Northwest 276 318 4,000 -1,200 Descending Kansas City Center
Mon 05:12:11 PM 38.2281 -97.2528 302° West 250 288 2,900 -528 Descending Kansas City Center
Mon 05:13:13 PM 38.1878 -97.2756 204° Southwest 174 200 2,900  Level Kansas City Center
Mon 05:14:15 PM 38.1411 -97.2761 181° South 167 192 2,900 -387 Level Kansas City Center
Mon 05:15:17 PM 38.0953 -97.2758 180° South 167 192 2,100 -581 Descending Kansas City Center
Mon 05:16:19 PM 38.0556 -97.2747 179° South 157 181 1,700 145 Descending Kansas City Center
Mon 05:17:21 PM 38.0181 -97.2725 177° South 143 165 2,400 677 Climbing Kansas City Center

Login

Don't have an account? Register now (free) for customized features, flight alerts, and more!